createdAt,value
2019-05-14T00:00:45.639Z,1026.38
2019-05-14T00:03:45.584Z,1026.39
2019-05-14T00:06:45.587Z,1026.40
2019-05-14T00:09:45.540Z,1026.43
2019-05-14T00:12:45.500Z,1026.47
2019-05-14T00:15:45.504Z,1026.46
2019-05-14T00:18:45.428Z,1026.54
2019-05-14T00:21:45.451Z,1026.39
2019-05-14T00:24:45.378Z,1026.38
2019-05-14T00:27:45.349Z,1026.28
2019-05-14T00:30:45.300Z,1026.38
2019-05-14T00:33:45.313Z,1026.36
2019-05-14T00:36:45.239Z,1026.28
2019-05-14T00:39:45.223Z,1026.36
2019-05-14T00:42:45.214Z,1026.37
2019-05-14T00:45:45.146Z,1026.30
2019-05-14T00:48:45.144Z,1026.33
2019-05-14T00:51:45.098Z,1026.27
2019-05-14T00:54:45.072Z,1026.30
2019-05-14T00:57:45.025Z,1026.36
2019-05-14T01:00:45.003Z,1026.36
2019-05-14T01:03:44.985Z,1026.37
2019-05-14T01:06:44.926Z,1026.33
2019-05-14T01:09:44.920Z,1026.28
2019-05-14T01:12:44.857Z,1026.22
2019-05-14T01:15:44.858Z,1026.15
2019-05-14T01:18:44.798Z,1026.17
2019-05-14T01:21:44.769Z,1026.15
2019-05-14T01:24:44.746Z,1026.10
2019-05-14T01:27:44.702Z,1026.12
2019-05-14T01:30:44.694Z,1026.06
2019-05-14T01:33:44.651Z,1026.05
2019-05-14T01:36:44.621Z,1026.03
2019-05-14T01:39:44.580Z,1025.91
2019-05-14T01:42:44.560Z,1025.92
2019-05-14T01:45:44.511Z,1025.76
2019-05-14T01:48:44.496Z,1025.73
2019-05-14T01:51:44.439Z,1025.77
2019-05-14T01:54:44.420Z,1025.74
2019-05-14T01:57:44.384Z,1025.74
2019-05-14T02:00:44.368Z,1025.73
2019-05-14T02:03:44.332Z,1025.68
2019-05-14T02:06:44.286Z,1025.58
2019-05-14T02:09:44.272Z,1025.60
2019-05-14T02:12:44.235Z,1025.50
2019-05-14T02:15:44.209Z,1025.58
2019-05-14T02:18:44.173Z,1025.54
2019-05-14T02:21:44.126Z,1025.46
2019-05-14T02:24:44.108Z,1025.50
2019-05-14T02:27:44.055Z,1025.57
2019-05-14T02:30:52.637Z,1025.38
2019-05-14T02:33:45.009Z,1025.39
2019-05-14T02:36:43.987Z,1025.40
2019-05-14T02:39:43.954Z,1025.34
2019-05-14T02:42:43.903Z,1025.40
2019-05-14T02:46:00.677Z,1025.34
2019-05-14T02:48:44.843Z,1025.38
2019-05-14T02:51:43.825Z,1025.34
2019-05-14T02:54:43.791Z,1025.33
2019-05-14T02:57:43.742Z,1025.26
2019-05-14T03:00:43.725Z,1025.28
2019-05-14T03:03:43.679Z,1025.31
2019-05-14T03:06:43.680Z,1025.43
2019-05-14T03:09:43.627Z,1025.45
2019-05-14T03:12:43.596Z,1025.45
2019-05-14T03:15:43.557Z,1025.49
2019-05-14T03:18:43.538Z,1025.45
2019-05-14T03:21:43.508Z,1025.46
2019-05-14T03:24:43.450Z,1025.45
2019-05-14T03:27:43.430Z,1025.40
2019-05-14T03:30:43.391Z,1025.41
2019-05-14T03:33:44.629Z,1025.36
2019-05-14T03:36:44.081Z,1025.38
2019-05-14T03:39:43.311Z,1025.35
2019-05-14T03:42:43.265Z,1025.32
2019-05-14T03:45:43.255Z,1025.31
2019-05-14T03:48:43.202Z,1025.38
2019-05-14T03:51:43.188Z,1025.40
2019-05-14T03:54:43.152Z,1025.33
2019-05-14T03:57:43.108Z,1025.31
2019-05-14T04:00:43.096Z,1025.27
2019-05-14T04:03:43.035Z,1025.21
2019-05-14T04:06:43.025Z,1025.18
2019-05-14T04:09:42.986Z,1025.16
2019-05-14T04:12:42.945Z,1025.19
2019-05-14T04:15:42.924Z,1025.17
2019-05-14T04:18:42.901Z,1025.25
2019-05-14T04:21:42.856Z,1025.23
2019-05-14T04:24:42.818Z,1025.23
2019-05-14T04:27:42.797Z,1025.20
2019-05-14T04:30:42.761Z,1025.16
2019-05-14T04:33:42.733Z,1025.18
2019-05-14T04:36:42.700Z,1025.25
2019-05-14T04:39:42.672Z,1025.21
2019-05-14T04:42:42.632Z,1025.22
2019-05-14T04:45:42.610Z,1025.22
2019-05-14T04:48:44.113Z,1025.14
2019-05-14T04:51:42.544Z,1025.08
2019-05-14T04:54:42.488Z,1025.21
2019-05-14T04:57:42.497Z,1025.29
2019-05-14T05:00:42.428Z,1025.29
2019-05-14T05:03:42.413Z,1025.31
2019-05-14T05:06:42.387Z,1025.28
2019-05-14T05:09:42.332Z,1025.32
2019-05-14T05:12:42.318Z,1025.33
2019-05-14T05:15:42.270Z,1025.33
2019-05-14T05:18:42.261Z,1025.29
2019-05-14T05:21:42.227Z,1025.36
2019-05-14T05:24:42.189Z,1025.29
2019-05-14T05:27:42.149Z,1025.28
2019-05-14T05:30:42.144Z,1025.32
2019-05-14T05:33:42.082Z,1025.32
2019-05-14T05:36:42.064Z,1025.45
2019-05-14T05:39:42.032Z,1025.43
2019-05-14T05:42:41.984Z,1025.48
2019-05-14T05:45:41.978Z,1025.40
2019-05-14T05:48:41.937Z,1025.36
2019-05-14T05:51:41.911Z,1025.42
2019-05-14T05:54:41.856Z,1025.38
2019-05-14T05:57:41.846Z,1025.27
2019-05-14T06:00:41.815Z,1025.32
2019-05-14T06:03:41.755Z,1025.27
2019-05-14T06:06:41.735Z,1025.40
2019-05-14T06:09:41.690Z,1025.37
2019-05-14T06:12:41.688Z,1025.27
2019-05-14T06:15:48.234Z,1025.26
2019-05-14T06:18:42.603Z,1025.25
2019-05-14T06:21:41.571Z,1025.31
2019-05-14T06:24:48.850Z,1025.32
2019-05-14T06:27:41.512Z,1025.29
2019-05-14T06:30:41.477Z,1025.30
2019-05-14T06:33:41.447Z,1025.03
2019-05-14T06:36:41.426Z,1025.24
2019-05-14T06:39:41.369Z,1025.15
2019-05-14T06:42:48.898Z,1025.19
2019-05-14T06:45:41.300Z,1025.24
2019-05-14T06:48:41.285Z,1025.20
2019-05-14T06:51:41.256Z,1025.27
2019-05-14T06:54:41.211Z,1025.43
2019-05-14T06:57:41.208Z,1025.51
2019-05-14T07:00:41.145Z,1025.28
2019-05-14T07:03:41.113Z,1025.45
2019-05-14T07:06:48.712Z,1025.38
2019-05-14T07:09:41.069Z,1025.29
2019-05-14T07:12:41.028Z,1025.36
2019-05-14T07:15:48.908Z,1025.33
2019-05-14T07:18:53.442Z,1025.34
2019-05-14T07:21:41.913Z,1025.38
2019-05-14T07:24:49.749Z,1025.41
2019-05-14T07:27:48.969Z,1025.39
2019-05-14T07:30:48.715Z,1025.40
2019-05-14T07:33:40.822Z,1025.43
2019-05-14T07:36:49.101Z,1025.47
2019-05-14T07:39:48.660Z,1025.41
2019-05-14T07:42:48.730Z,1025.51
2019-05-14T07:45:49.125Z,1025.52
2019-05-14T07:49:03.556Z,1025.58
2019-05-14T07:51:41.613Z,1025.57
2019-05-14T07:54:48.279Z,1025.57
2019-05-14T07:57:48.297Z,1025.56
2019-05-14T08:00:49.123Z,1025.56
2019-05-14T08:03:48.744Z,1025.54
2019-05-14T08:06:48.760Z,1025.53
2019-05-14T08:09:40.404Z,1025.12
2019-05-14T08:12:40.411Z,1025.27
2019-05-14T08:15:40.341Z,1025.58
2019-05-14T08:18:40.341Z,1025.09
2019-05-14T08:21:49.435Z,1025.07
2019-05-14T08:24:40.266Z,1025.08
2019-05-14T08:27:48.296Z,1025.09
2019-05-14T08:30:49.116Z,1025.49
2019-05-14T08:33:48.866Z,1025.03
2019-05-14T08:36:48.355Z,1025.44
2019-05-14T08:39:48.653Z,1025.29
2019-05-14T08:42:49.034Z,1025.29
2019-05-14T08:45:40.064Z,1025.23
2019-05-14T08:48:40.029Z,1025.23
2019-05-14T08:51:39.959Z,1025.17
2019-05-14T08:54:39.951Z,1024.91
2019-05-14T08:57:48.938Z,1025.21
2019-05-14T09:00:39.900Z,1024.84
2019-05-14T09:03:39.835Z,1024.80
2019-05-14T09:06:39.834Z,1024.67
2019-05-14T09:09:39.772Z,1024.69
2019-05-14T09:12:39.776Z,1024.71
2019-05-14T09:15:39.710Z,1025.07
2019-05-14T09:18:39.707Z,1024.96
2019-05-14T09:21:40.007Z,1024.65
2019-05-14T09:24:39.613Z,1024.57
2019-05-14T09:27:39.603Z,1024.57
2019-05-14T09:30:39.547Z,1024.86
2019-05-14T09:33:39.548Z,1025.00
2019-05-14T09:36:39.835Z,1024.57
2019-05-14T09:39:39.478Z,1024.68
2019-05-14T09:42:39.679Z,1024.61
2019-05-14T09:45:39.418Z,1024.50
2019-05-14T09:48:39.361Z,1024.62
2019-05-14T09:51:39.350Z,1024.51
2019-05-14T09:54:43.726Z,1024.46
2019-05-14T09:57:39.285Z,1024.88
2019-05-14T10:00:39.252Z,1024.77
2019-05-14T10:03:39.351Z,1024.73
2019-05-14T10:06:39.422Z,1024.75
2019-05-14T10:09:39.368Z,1024.74
2019-05-14T10:12:50.890Z,1024.70
2019-05-14T10:15:40.108Z,1024.38
2019-05-14T10:18:39.049Z,1024.63
2019-05-14T10:21:39.102Z,1024.35
2019-05-14T10:24:39.029Z,1024.35
2019-05-14T10:27:38.958Z,1024.72
2019-05-14T10:30:38.954Z,1024.59
2019-05-14T10:33:38.915Z,1024.65
2019-05-14T10:36:38.884Z,1024.16
2019-05-14T10:39:39.335Z,1024.10
2019-05-14T10:42:40.535Z,1024.22
2019-05-14T10:45:38.804Z,1024.50
2019-05-14T10:48:39.520Z,1024.11
2019-05-14T10:51:39.026Z,1024.29
2019-05-14T10:54:47.811Z,1024.41
2019-05-14T10:57:39.650Z,1024.18
2019-05-14T11:00:41.860Z,1024.12
2019-05-14T11:03:38.920Z,1023.81
2019-05-14T11:06:38.929Z,1024.06
2019-05-14T11:09:38.527Z,1023.93
2019-05-14T11:12:39.634Z,1023.96
2019-05-14T11:15:39.460Z,1023.92
2019-05-14T11:18:39.918Z,1023.83
2019-05-14T11:21:39.191Z,1023.89
2019-05-14T11:24:38.716Z,1023.62
2019-05-14T11:27:38.896Z,1023.66
2019-05-14T11:30:39.225Z,1023.62
2019-05-14T11:33:38.818Z,1023.82
2019-05-14T11:36:38.973Z,1023.50
2019-05-14T11:39:38.227Z,1023.37
2019-05-14T11:42:38.789Z,1023.28
2019-05-14T11:45:39.225Z,1023.58
2019-05-14T11:48:39.337Z,1023.41
2019-05-14T11:51:59.503Z,1023.38
2019-05-14T11:54:40.941Z,1023.50
2019-05-14T11:57:38.046Z,1023.13
2019-05-14T12:00:38.702Z,1023.24
2019-05-14T12:03:39.400Z,1023.31
2019-05-14T12:06:39.115Z,1023.26
2019-05-14T12:09:39.122Z,1023.41
2019-05-14T12:12:37.908Z,1022.96
2019-05-14T12:15:38.884Z,1023.06
2019-05-14T12:18:41.797Z,1023.03
2019-05-14T12:21:39.773Z,1023.22
2019-05-14T12:24:38.742Z,1023.19
2019-05-14T12:27:38.843Z,1023.14
2019-05-14T12:30:39.559Z,1023.01
2019-05-14T12:33:39.662Z,1022.99
2019-05-14T12:36:38.876Z,1022.98
2019-05-14T12:39:37.629Z,1022.74
2019-05-14T12:42:39.215Z,1022.81
2019-05-14T12:45:39.371Z,1022.79
2019-05-14T12:48:38.947Z,1022.73
2019-05-14T12:51:41.738Z,1022.78
2019-05-14T12:54:38.862Z,1022.80
2019-05-14T12:57:39.427Z,1022.58
2019-05-14T13:00:39.329Z,1022.52
2019-05-14T13:03:37.352Z,1022.70
2019-05-14T13:06:40.106Z,1022.59
2019-05-14T13:09:38.564Z,1022.56
2019-05-14T13:12:39.064Z,1022.54
2019-05-14T13:15:39.352Z,1022.57
2019-05-14T13:18:38.767Z,1022.47
2019-05-14T13:21:38.927Z,1022.45
2019-05-14T13:24:39.387Z,1022.44
2019-05-14T13:27:39.192Z,1022.38
2019-05-14T13:30:37.104Z,1022.29
2019-05-14T13:33:39.320Z,1022.19
2019-05-14T13:36:39.529Z,1022.00
2019-05-14T13:39:39.827Z,1021.96
2019-05-14T13:42:39.923Z,1022.01
2019-05-14T13:45:39.148Z,1021.99
2019-05-14T13:48:42.679Z,1021.83
2019-05-14T13:51:38.821Z,1021.85
2019-05-14T13:54:39.146Z,1021.84
2019-05-14T13:57:39.481Z,1021.80
2019-05-14T14:00:36.771Z,1021.76
2019-05-14T14:03:46.646Z,1021.70
2019-05-14T14:06:39.399Z,1021.59
2019-05-14T14:09:39.138Z,1021.57
2019-05-14T14:12:39.908Z,1021.58
2019-05-14T14:15:38.456Z,1021.61
2019-05-14T14:18:38.860Z,1021.64
2019-05-14T14:21:39.361Z,1021.45
2019-05-14T14:24:38.695Z,1021.40
2019-05-14T14:27:39.982Z,1021.35
2019-05-14T14:30:39.287Z,1021.34
2019-05-14T14:33:38.910Z,1021.32
2019-05-14T14:36:38.657Z,1021.36
2019-05-14T14:39:36.391Z,1021.26
2019-05-14T14:42:36.323Z,1021.17
2019-05-14T14:45:44.789Z,1021.13
2019-05-14T14:48:39.571Z,1021.09
2019-05-14T14:51:41.738Z,1021.11
2019-05-14T14:54:38.183Z,1021.02
2019-05-14T14:57:37.899Z,1021.04
2019-05-14T15:02:21.015Z,1021.03
2019-05-14T15:05:21.038Z,1020.91
2019-05-14T15:08:20.942Z,1020.97
2019-05-14T15:11:20.936Z,1020.89
2019-05-14T15:14:20.889Z,1020.87
2019-05-14T15:17:20.892Z,1020.90
2019-05-14T15:20:20.818Z,1020.92
2019-05-14T15:23:20.815Z,1020.80
2019-05-14T15:26:20.776Z,1020.80
2019-05-14T15:29:20.729Z,1020.85
2019-05-14T15:32:20.711Z,1020.84
2019-05-14T15:35:20.653Z,1020.82
2019-05-14T15:38:30.510Z,1020.68
2019-05-14T15:41:20.735Z,1020.62
2019-05-14T15:44:20.594Z,1020.67
2019-05-14T15:47:20.522Z,1020.57
2019-05-14T15:50:20.507Z,1020.70
2019-05-14T15:53:20.494Z,1020.64
2019-05-14T15:56:20.433Z,1020.58
2019-05-14T15:59:20.424Z,1020.62
2019-05-14T16:02:20.378Z,1020.62
2019-05-14T16:05:20.341Z,1020.51
2019-05-14T16:08:22.892Z,1020.47
2019-05-14T16:11:20.267Z,1020.42
2019-05-14T16:14:20.251Z,1020.37
2019-05-14T16:17:24.509Z,1020.30
2019-05-14T16:20:21.195Z,1020.32
2019-05-14T16:23:20.166Z,1020.29
2019-05-14T16:26:20.115Z,1020.28
2019-05-14T16:29:36.873Z,1020.28
2019-05-14T16:32:21.035Z,1020.30
2019-05-14T16:35:21.306Z,1020.29
2019-05-14T16:38:23.033Z,1020.25
2019-05-14T16:41:19.938Z,1020.21
2019-05-14T16:44:19.934Z,1020.23
2019-05-14T16:47:19.889Z,1020.21
2019-05-14T16:50:19.866Z,1020.21
2019-05-14T16:53:19.813Z,1020.25
2019-05-14T16:56:19.808Z,1020.18
2019-05-14T16:59:19.742Z,1020.19
2019-05-14T17:02:19.740Z,1020.18
2019-05-14T17:05:19.686Z,1020.18
2019-05-14T17:08:19.715Z,1020.06
2019-05-14T17:11:19.627Z,1020.06
2019-05-14T17:14:19.594Z,1020.18
2019-05-14T17:17:20.146Z,1020.11
2019-05-14T17:20:23.660Z,1020.03
2019-05-14T17:23:19.482Z,1020.01
2019-05-14T17:26:19.473Z,1020.05
2019-05-14T17:29:19.448Z,1020.07
2019-05-14T17:32:19.398Z,1020.04
2019-05-14T17:35:19.762Z,1020.04
2019-05-14T17:38:19.313Z,1020.09
2019-05-14T17:41:19.680Z,1020.06
2019-05-14T17:44:19.247Z,1019.97
2019-05-14T17:47:19.245Z,1019.96
2019-05-14T17:50:19.202Z,1020.03
2019-05-14T17:53:19.155Z,1019.99
2019-05-14T17:56:22.420Z,1020.00
2019-05-14T17:59:19.324Z,1020.01
2019-05-14T18:02:19.295Z,1019.96
2019-05-14T18:05:19.035Z,1019.89
2019-05-14T18:08:26.026Z,1019.92
2019-05-14T18:11:19.278Z,1019.89
2019-05-14T18:14:19.176Z,1019.81
2019-05-14T18:17:19.047Z,1019.81
2019-05-14T18:20:18.862Z,1019.86
2019-05-14T18:23:18.861Z,1019.88
2019-05-14T18:26:19.090Z,1019.81
2019-05-14T18:29:19.063Z,1019.75
2019-05-14T18:32:19.091Z,1019.65
2019-05-14T18:35:18.985Z,1019.71
2019-05-14T18:38:19.417Z,1019.69
2019-05-14T18:41:19.046Z,1019.74
2019-05-14T18:44:19.115Z,1019.78
2019-05-14T18:47:20.018Z,1019.71
2019-05-14T18:50:19.614Z,1019.72
2019-05-14T18:53:19.082Z,1019.73
2019-05-14T18:56:23.782Z,1019.74
2019-05-14T18:59:21.339Z,1019.67
2019-05-14T19:02:18.572Z,1019.68
2019-05-14T19:05:18.435Z,1019.64
2019-05-14T19:08:18.334Z,1019.71
2019-05-14T19:11:18.332Z,1019.63
2019-05-14T19:14:18.861Z,1019.65
2019-05-14T19:17:18.770Z,1019.70
2019-05-14T19:20:19.280Z,1019.68
2019-05-14T19:23:18.805Z,1019.65
2019-05-14T19:26:32.999Z,1019.69
2019-05-14T19:29:19.098Z,1019.66
2019-05-14T19:32:19.105Z,1019.71
2019-05-14T19:35:19.170Z,1019.76
2019-05-14T19:38:18.031Z,1019.69
2019-05-14T19:41:20.931Z,1019.67
2019-05-14T19:44:19.087Z,1019.72
2019-05-14T19:47:18.685Z,1019.69
2019-05-14T19:50:18.745Z,1019.75
2019-05-14T19:53:17.863Z,1019.72
2019-05-14T19:56:17.839Z,1019.75
2019-05-14T19:59:18.292Z,1019.76
2019-05-14T20:02:18.425Z,1019.67
2019-05-14T20:05:19.086Z,1019.80
2019-05-14T20:08:18.913Z,1019.81
2019-05-14T20:11:19.312Z,1019.83
2019-05-14T20:14:17.602Z,1019.78
2019-05-14T20:17:19.449Z,1019.81
2019-05-14T20:20:19.312Z,1019.80
2019-05-14T20:23:18.524Z,1019.79
2019-05-14T20:26:17.496Z,1019.77
2019-05-14T20:29:19.467Z,1019.77
2019-05-14T20:32:19.399Z,1019.78
2019-05-14T20:35:30.356Z,1019.79
2019-05-14T20:38:18.653Z,1019.77
2019-05-14T20:41:18.015Z,1019.82
2019-05-14T20:44:18.898Z,1019.72
2019-05-14T20:47:19.001Z,1019.77
2019-05-14T20:50:18.258Z,1019.70
2019-05-14T20:53:18.596Z,1019.68
2019-05-14T20:56:18.941Z,1019.70
2019-05-14T20:59:19.157Z,1019.68
2019-05-14T21:02:18.625Z,1019.66
2019-05-14T21:05:18.804Z,1019.65
2019-05-14T21:08:18.850Z,1019.69
2019-05-14T21:11:19.092Z,1019.71
2019-05-14T21:14:18.282Z,1019.75
2019-05-14T21:17:19.100Z,1019.67
2019-05-14T21:20:18.432Z,1019.71
2019-05-14T21:23:18.357Z,1019.72
2019-05-14T21:26:19.160Z,1019.67
2019-05-14T21:29:16.759Z,1019.64
2019-05-14T21:32:19.459Z,1019.59
2019-05-14T21:35:19.113Z,1019.57
2019-05-14T21:38:18.990Z,1019.58
2019-05-14T21:41:20.149Z,1019.64
2019-05-14T21:44:18.695Z,1019.50
2019-05-14T21:47:16.561Z,1019.52
2019-05-14T21:50:18.122Z,1019.55
2019-05-14T21:53:18.959Z,1019.52
2019-05-14T21:56:21.294Z,1019.49
2019-05-14T21:59:18.914Z,1019.50
2019-05-14T22:02:24.450Z,1019.54
2019-05-14T22:05:18.977Z,1019.49
2019-05-14T22:08:16.355Z,1019.45
2019-05-14T22:11:18.644Z,1019.48
2019-05-14T22:14:18.638Z,1019.51
2019-05-14T22:17:16.244Z,1019.46
2019-05-14T22:20:16.232Z,1019.47
2019-05-14T22:23:17.831Z,1019.51
2019-05-14T22:26:18.450Z,1019.41
2019-05-14T22:29:17.892Z,1019.42
2019-05-14T22:32:16.093Z,1019.46
2019-05-14T22:35:16.092Z,1019.39
2019-05-14T22:38:20.008Z,1019.45
2019-05-14T22:41:18.416Z,1019.47
2019-05-14T22:44:15.953Z,1019.49
2019-05-14T22:47:15.944Z,1019.40
2019-05-14T22:50:18.270Z,1019.40
2019-05-14T22:53:15.858Z,1019.49
2019-05-14T22:56:15.853Z,1019.43
2019-05-14T22:59:15.792Z,1019.49
2019-05-14T23:02:15.781Z,1019.49
2019-05-14T23:05:15.757Z,1019.59
2019-05-14T23:08:15.699Z,1019.56
2019-05-14T23:11:15.690Z,1019.57
2019-05-14T23:14:15.638Z,1019.59
2019-05-14T23:17:15.628Z,1019.61
2019-05-14T23:20:15.573Z,1019.53
2019-05-14T23:23:15.561Z,1019.50
2019-05-14T23:26:15.513Z,1019.48
2019-05-14T23:29:15.491Z,1019.48
2019-05-14T23:32:15.467Z,1019.40
2019-05-14T23:35:15.412Z,1019.44
2019-05-14T23:38:15.398Z,1019.32
2019-05-14T23:41:15.353Z,1019.34
2019-05-14T23:44:15.349Z,1019.32
2019-05-14T23:47:15.290Z,1019.31
2019-05-14T23:50:15.279Z,1019.32
2019-05-14T23:53:15.222Z,1019.22
2019-05-14T23:56:15.211Z,1019.19
2019-05-14T23:59:15.186Z,1019.15
